Time;durP1;ratioP1;P1;durP2;ratioP2;P2;SDS_P1;SDS_P2;PMS_P1;PMS_P2;Temp;Humidity;BMP_temperature;BMP_pressure;BME280_temperature;BME280_humidity;BME280_pressure;Samples;Min_cycle;Max_cycle;Signal;HPM_P1;HPM_P2
2022/01/29 00:00:07;;;;;;;56.75;34.83;;;7.80;84.40;;;;;;5032237;28;20036;-68
2022/01/29 00:02:33;;;;;;;55.10;35.30;;;7.80;84.40;;;;;;5031492;28;20102;-68
2022/01/29 00:04:59;;;;;;;63.88;37.22;;;7.70;84.40;;;;;;5032146;28;20476;-68
2022/01/29 00:07:24;;;;;;;69.80;38.20;;;7.70;84.40;;;;;;5032328;28;20491;-68
2022/01/29 00:09:50;;;;;;;60.25;39.00;;;7.70;84.50;;;;;;5032420;28;20041;-68
2022/01/29 00:12:16;;;;;;;54.45;34.08;;;7.70;84.60;;;;;;5032183;28;20061;-68
2022/01/29 00:14:42;;;;;;;58.38;35.30;;;7.70;84.60;;;;;;5031772;28;20105;-69
2022/01/29 00:17:07;;;;;;;60.75;37.72;;;7.70;84.60;;;;;;5032219;28;20018;-69
2022/01/29 00:19:33;;;;;;;63.22;35.03;;;7.70;84.80;;;;;;5031765;28;20034;-68
2022/01/29 00:22:02;;;;;;;66.20;34.92;;;7.70;85.00;;;;;;5031822;28;20061;-69
2022/01/29 00:24:28;;;;;;;59.03;35.78;;;7.70;85.00;;;;;;5031342;28;20029;-68
2022/01/29 00:26:54;;;;;;;64.65;38.38;;;7.70;85.20;;;;;;4997721;28;20029;-69
2022/01/29 00:29:22;;;;;;;64.78;39.38;;;7.60;85.80;;;;;;5014117;28;20113;-69
2022/01/29 00:31:48;;;;;;;65.13;39.10;;;7.60;86.30;;;;;;5014679;28;20033;-68
2022/01/29 00:34:14;;;;;;;60.17;35.75;;;7.50;86.60;;;;;;5030360;28;20057;-68
2022/01/29 00:36:39;;;;;;;59.03;35.63;;;7.50;86.80;;;;;;5031860;28;20022;-69
2022/01/29 00:39:05;;;;;;;66.05;38.47;;;7.50;86.90;;;;;;5031816;28;20060;-68
2022/01/29 00:41:31;;;;;;;65.93;37.95;;;7.50;87.00;;;;;;4997681;28;20022;-68
2022/01/29 00:43:57;;;;;;;67.93;41.42;;;7.50;87.30;;;;;;5030956;28;20064;-69
2022/01/29 00:46:23;;;;;;;67.60;39.30;;;7.50;87.60;;;;;;5031491;28;20049;-69
2022/01/29 00:48:48;;;;;;;66.22;39.00;;;7.50;87.90;;;;;;5013626;28;20116;-68
2022/01/29 00:51:14;;;;;;;73.38;42.63;;;7.40;88.20;;;;;;5031460;28;20116;-69
2022/01/29 00:53:40;;;;;;;69.13;38.33;;;7.40;88.70;;;;;;5013334;28;20473;-69
2022/01/29 00:56:07;;;;;;;72.80;40.10;;;7.40;88.70;;;;;;5013748;28;20080;-69
2022/01/29 00:58:33;;;;;;;69.43;40.80;;;7.40;88.70;;;;;;5031329;28;20045;-68
2022/01/29 01:01:00;;;;;;;65.38;38.25;;;7.40;88.80;;;;;;5031181;28;20401;-69
2022/01/29 01:03:26;;;;;;;66.72;38.38;;;7.40;88.90;;;;;;5012647;28;20029;-69
2022/01/29 01:05:52;;;;;;;74.95;40.40;;;7.40;88.90;;;;;;5013368;28;20435;-71
2022/01/29 01:08:17;;;;;;;77.55;43.35;;;7.40;89.00;;;;;;5031421;28;20075;-68
2022/01/29 01:10:43;;;;;;;73.80;40.80;;;7.40;89.10;;;;;;5030932;28;20107;-69
2022/01/29 01:13:09;;;;;;;72.22;41.70;;;7.40;89.10;;;;;;5030618;28;20033;-69
2022/01/29 01:15:35;;;;;;;73.25;40.70;;;7.40;89.30;;;;;;5031077;28;20017;-69
2022/01/29 01:18:01;;;;;;;70.72;40.47;;;7.40;89.40;;;;;;5030584;28;20425;-69
2022/01/29 01:20:27;;;;;;;76.28;41.28;;;7.40;89.50;;;;;;5030794;28;20136;-69
2022/01/29 01:22:53;;;;;;;74.57;42.30;;;7.30;89.50;;;;;;5012703;28;20040;-69
2022/01/29 01:25:18;;;;;;;78.85;41.92;;;7.40;89.70;;;;;;5030772;28;20471;-69
2022/01/29 01:27:44;;;;;;;76.32;41.95;;;7.40;89.70;;;;;;5030683;28;20507;-69
2022/01/29 01:30:10;;;;;;;76.38;40.40;;;7.30;89.80;;;;;;5030904;28;20037;-69
2022/01/29 01:32:37;;;;;;;72.63;41.05;;;7.40;89.90;;;;;;5029527;28;20059;-69
2022/01/29 01:35:17;;;;;;;86.05;44.65;;;7.40;89.90;;;;;;5030815;28;20025;-69
2022/01/29 01:37:51;;;;;;;72.68;42.25;;;7.40;90.00;;;;;;5030579;28;20059;-69
2022/01/29 01:40:19;;;;;;;69.18;39.72;;;7.40;90.10;;;;;;5030259;28;20499;-69
2022/01/29 01:42:45;;;;;;;69.32;39.83;;;7.40;90.00;;;;;;5029919;28;20503;-69
2022/01/29 01:45:10;;;;;;;70.40;38.78;;;7.40;90.10;;;;;;5030362;28;20041;-69
2022/01/29 01:47:36;;;;;;;67.88;39.97;;;7.40;90.10;;;;;;5012064;28;20026;-69
2022/01/29 01:50:04;;;;;;;71.05;39.13;;;7.40;90.50;;;;;;5012875;28;20029;-69
2022/01/29 01:52:30;;;;;;;74.07;39.92;;;7.30;90.20;;;;;;5029250;28;20400;-69
2022/01/29 01:54:56;;;;;;;69.97;41.22;;;7.40;90.30;;;;;;5030052;28;20037;-69
2022/01/29 01:57:21;;;;;;;75.35;39.92;;;7.40;90.30;;;;;;5030234;28;20538;-69
2022/01/29 01:59:47;;;;;;;72.85;40.95;;;7.40;90.30;;;;;;5030183;28;20028;-69
2022/01/29 02:02:13;;;;;;;64.90;39.25;;;7.40;90.30;;;;;;5012139;28;20060;-69
2022/01/29 02:04:39;;;;;;;69.88;39.40;;;7.40;90.30;;;;;;5011822;28;20040;-69
2022/01/29 02:07:05;;;;;;;63.45;39.25;;;7.40;90.30;;;;;;5012323;28;20060;-69
2022/01/29 02:09:32;;;;;;;76.63;43.03;;;7.40;90.50;;;;;;5012277;28;20179;-69
2022/01/29 02:12:01;;;;;;;68.70;40.28;;;7.40;90.50;;;;;;5012655;28;20033;-69
2022/01/29 02:14:31;;;;;;;78.00;43.03;;;7.40;90.50;;;;;;5029247;28;20033;-68
2022/01/29 02:16:57;;;;;;;73.18;42.47;;;7.40;90.60;;;;;;5029830;28;20033;-69
2022/01/29 02:19:23;;;;;;;65.00;39.92;;;7.40;90.60;;;;;;5029832;28;20107;-69
2022/01/29 02:21:49;;;;;;;63.60;38.78;;;7.40;90.70;;;;;;5029729;28;20064;-69
2022/01/29 02:24:14;;;;;;;74.00;41.42;;;7.40;90.70;;;;;;5011706;28;20130;-68
2022/01/29 02:26:41;;;;;;;62.75;38.65;;;7.40;90.70;;;;;;5029649;28;20426;-69
2022/01/29 02:29:07;;;;;;;64.82;39.05;;;7.40;90.70;;;;;;5029675;28;20025;-68
2022/01/29 02:31:32;;;;;;;71.97;42.42;;;7.40;90.70;;;;;;5012107;28;20038;-68
2022/01/29 02:33:58;;;;;;;69.60;39.72;;;7.40;90.80;;;;;;5010649;28;20075;-68
2022/01/29 02:36:24;;;;;;;64.18;40.00;;;7.40;90.80;;;;;;5029348;28;20033;-69
2022/01/29 02:38:50;;;;;;;63.35;38.63;;;7.40;90.90;;;;;;5029639;28;20492;-68
2022/01/29 02:41:16;;;;;;;66.05;39.63;;;7.40;90.90;;;;;;5029800;28;20522;-69
2022/01/29 02:43:48;;;;;;;62.35;38.45;;;7.40;91.00;;;;;;5011521;28;20377;-69
2022/01/29 02:46:28;;;;;;;54.35;35.88;;;7.40;91.10;;;;;;5028050;28;20031;-69
2022/01/29 02:48:54;;;;;;;58.15;37.33;;;7.40;91.10;;;;;;5028579;28;20029;-69
2022/01/29 02:51:20;;;;;;;55.72;36.83;;;7.40;91.20;;;;;;5028788;28;20038;-69
2022/01/29 02:53:46;;;;;;;55.72;37.00;;;7.30;91.20;;;;;;5029143;28;20021;-68
2022/01/29 02:56:13;;;;;;;55.35;36.47;;;7.40;91.30;;;;;;5011598;28;20029;-69
2022/01/29 02:58:38;;;;;;;59.65;37.33;;;7.40;91.30;;;;;;5029222;28;20460;-69
2022/01/29 03:01:06;;;;;;;52.42;35.05;;;7.40;91.30;;;;;;5011981;28;20034;-68
2022/01/29 03:03:32;;;;;;;52.60;34.63;;;7.40;91.30;;;;;;5028428;28;20097;-68
2022/01/29 03:05:57;;;;;;;50.60;32.88;;;7.40;91.30;;;;;;5011354;28;20112;-68
2022/01/29 03:08:23;;;;;;;46.15;31.92;;;7.40;91.30;;;;;;5029220;28;20049;-68
2022/01/29 03:10:49;;;;;;;50.15;33.63;;;7.40;91.30;;;;;;5029531;28;20029;-69
2022/01/29 03:13:16;;;;;;;49.45;33.63;;;7.40;91.30;;;;;;5028941;28;20554;-69
2022/01/29 03:15:42;;;;;;;52.05;33.10;;;7.50;91.30;;;;;;5029056;28;20117;-69
2022/01/29 03:18:07;;;;;;;49.45;31.98;;;7.50;91.30;;;;;;5028283;28;20030;-69
2022/01/29 03:20:33;;;;;;;49.45;31.25;;;7.40;91.30;;;;;;5029380;28;20123;-69
2022/01/29 03:22:59;;;;;;;45.40;31.45;;;7.50;91.40;;;;;;5028860;28;20033;-68
2022/01/29 03:25:25;;;;;;;45.42;32.38;;;7.50;91.30;;;;;;5029008;28;20140;-68
2022/01/29 03:27:51;;;;;;;60.35;36.17;;;7.50;91.40;;;;;;5011538;28;20088;-69
2022/01/29 03:30:17;;;;;;;51.47;33.50;;;7.50;91.40;;;;;;5011741;28;20484;-68
2022/01/29 03:32:43;;;;;;;46.50;32.00;;;7.50;91.40;;;;;;5027809;28;20507;-69
2022/01/29 03:35:10;;;;;;;46.58;31.13;;;7.50;91.40;;;;;;5029508;28;20064;-68
2022/01/29 03:37:36;;;;;;;48.60;33.15;;;7.50;91.40;;;;;;5028862;28;20383;-69
2022/01/29 03:40:05;;;;;;;51.38;34.10;;;7.50;91.40;;;;;;5029272;28;20551;-69
2022/01/29 03:42:35;;;;;;;52.33;32.58;;;7.50;91.50;;;;;;5028775;28;20446;-69
2022/01/29 03:45:02;;;;;;;48.97;32.05;;;7.50;91.50;;;;;;5028964;28;20056;-68
2022/01/29 03:47:28;;;;;;;45.33;31.23;;;7.50;91.50;;;;;;5028344;28;20033;-68
2022/01/29 03:49:53;;;;;;;49.90;31.75;;;7.50;91.50;;;;;;5011323;28;20577;-68
2022/01/29 03:52:19;;;;;;;45.70;30.55;;;7.50;91.80;;;;;;5028696;28;20045;-68
2022/01/29 03:54:45;;;;;;;49.33;32.17;;;7.50;91.50;;;;;;5028980;28;20033;-68
2022/01/29 03:57:10;;;;;;;62.42;36.40;;;7.50;91.60;;;;;;5028858;28;20032;-68
2022/01/29 03:59:36;;;;;;;46.05;30.83;;;7.50;91.50;;;;;;5028889;28;20021;-68
2022/01/29 04:02:02;;;;;;;48.40;30.45;;;7.50;91.50;;;;;;4994874;28;20021;-68
2022/01/29 04:04:28;;;;;;;46.95;31.42;;;7.50;91.50;;;;;;5032181;28;20029;-68
2022/01/29 04:06:54;;;;;;;46.97;31.88;;;7.50;91.60;;;;;;5032403;28;20365;-68
2022/01/29 04:09:21;;;;;;;47.70;31.50;;;7.50;91.60;;;;;;5014411;28;20132;-68
2022/01/29 04:11:46;;;;;;;45.92;31.00;;;7.50;91.70;;;;;;5032491;28;20022;-68
2022/01/29 04:14:17;;;;;;;51.03;33.28;;;7.50;91.80;;;;;;5031866;28;20560;-68
2022/01/29 04:16:44;;;;;;;48.25;31.67;;;7.50;91.70;;;;;;5031836;28;20397;-68
2022/01/29 04:19:10;;;;;;;44.63;31.40;;;7.50;91.80;;;;;;5031452;28;20475;-68
2022/01/29 04:21:36;;;;;;;62.10;34.92;;;7.50;91.80;;;;;;5031834;28;20050;-68
2022/01/29 04:24:02;;;;;;;58.60;34.70;;;7.50;91.80;;;;;;5014273;28;20117;-68
2022/01/29 04:26:33;;;;;;;55.03;35.05;;;7.50;91.80;;;;;;5030377;28;20518;-68
2022/01/29 04:28:59;;;;;;;69.60;37.70;;;7.60;91.80;;;;;;5013787;28;20029;-68
2022/01/29 04:31:25;;;;;;;54.45;34.33;;;7.60;91.80;;;;;;5031713;28;20456;-68
2022/01/29 04:33:51;;;;;;;54.55;34.83;;;7.60;91.80;;;;;;5030787;28;20049;-68
2022/01/29 04:36:16;;;;;;;60.30;37.08;;;7.60;91.90;;;;;;5014190;28;20057;-68
2022/01/29 04:38:42;;;;;;;58.28;36.63;;;7.60;92.00;;;;;;5031534;28;20029;-68
2022/01/29 04:41:08;;;;;;;57.78;36.00;;;7.60;91.90;;;;;;5031501;28;20104;-68
2022/01/29 04:43:36;;;;;;;58.25;35.58;;;7.60;92.00;;;;;;5031118;28;20037;-68
2022/01/29 04:46:02;;;;;;;65.93;38.10;;;7.60;92.00;;;;;;5014090;28;20084;-68
2022/01/29 04:48:28;;;;;;;72.10;39.72;;;7.60;92.00;;;;;;5030911;28;20032;-68
2022/01/29 04:50:54;;;;;;;79.25;40.83;;;7.60;92.10;;;;;;5031489;28;20033;-68
2022/01/29 04:53:20;;;;;;;60.63;35.88;;;7.70;92.10;;;;;;5031230;28;20490;-68
2022/01/29 04:55:46;;;;;;;62.60;37.15;;;7.70;92.10;;;;;;5031604;28;20096;-68
2022/01/29 04:58:12;;;;;;;65.43;37.30;;;7.70;92.10;;;;;;5030925;28;20105;-68
2022/01/29 05:00:37;;;;;;;61.22;35.90;;;7.70;92.20;;;;;;5031310;28;20026;-68
2022/01/29 05:03:12;;;;;;;65.80;36.90;;;7.70;92.30;;;;;;5030405;28;20034;-68
2022/01/29 05:05:39;;;;;;;70.05;39.72;;;7.70;92.30;;;;;;5031462;28;20113;-68
2022/01/29 05:08:05;;;;;;;63.58;36.50;;;7.70;92.40;;;;;;5031189;28;20439;-68
2022/01/29 05:10:31;;;;;;;68.45;38.63;;;7.80;92.40;;;;;;5031131;28;20087;-68
2022/01/29 05:13:02;;;;;;;60.85;36.38;;;7.80;92.50;;;;;;5012530;28;20087;-67
2022/01/29 05:28:55;;;;;;;70.68;38.63;;;7.90;92.50;;;;;;5015410;28;20211;-68
2022/01/29 05:31:20;;;;;;;64.78;38.08;;;7.90;92.50;;;;;;5030716;28;20108;-69
2022/01/29 05:33:46;;;;;;;80.13;40.00;;;7.90;92.60;;;;;;5029600;28;20128;-69
2022/01/29 05:36:12;;;;;;;71.78;42.53;;;7.90;92.60;;;;;;5030650;28;20041;-68
2022/01/29 05:38:37;;;;;;;66.63;39.45;;;7.90;92.60;;;;;;5030149;28;20029;-68
2022/01/29 05:41:04;;;;;;;82.13;42.40;;;7.90;92.60;;;;;;5030610;28;20026;-69
2022/01/29 05:43:31;;;;;;;76.80;42.22;;;7.90;92.50;;;;;;5012315;28;20029;-68
2022/01/29 05:45:56;;;;;;;71.07;40.05;;;7.90;92.50;;;;;;5012535;28;20112;-68
2022/01/29 05:48:22;;;;;;;66.47;40.00;;;8.00;92.60;;;;;;5012030;28;20148;-69
2022/01/29 05:50:48;;;;;;;61.60;37.95;;;8.00;92.60;;;;;;5030499;28;20435;-68
2022/01/29 05:53:14;;;;;;;74.65;41.03;;;8.00;92.80;;;;;;5011703;28;20484;-68
2022/01/29 05:55:40;;;;;;;67.07;40.10;;;8.00;92.50;;;;;;5012543;28;20026;-69
2022/01/29 05:58:05;;;;;;;68.40;40.08;;;8.00;92.80;;;;;;5029913;28;20087;-68
2022/01/29 06:00:31;;;;;;;67.80;40.45;;;8.00;92.50;;;;;;5012684;28;20030;-68
2022/01/29 06:03:04;;;;;;;65.97;40.08;;;8.00;92.50;;;;;;4994711;28;20053;-68
2022/01/29 06:05:30;;;;;;;68.28;39.42;;;8.00;92.40;;;;;;5030268;28;20075;-68
2022/01/29 06:07:56;;;;;;;83.00;42.88;;;8.10;92.40;;;;;;5029877;28;20040;-68
2022/01/29 06:10:22;;;;;;;68.00;41.05;;;8.10;92.40;;;;;;5030155;28;20021;-68
2022/01/29 06:13:04;;;;;;;76.43;41.88;;;8.10;92.40;;;;;;5011812;28;20025;-68
2022/01/29 06:15:39;;;;;;;80.40;43.05;;;8.10;92.70;;;;;;5029970;28;20026;-68
2022/01/29 06:18:05;;;;;;;70.07;39.25;;;8.10;92.50;;;;;;5029541;28;20040;-68
2022/01/29 06:20:31;;;;;;;63.13;39.08;;;8.10;92.50;;;;;;5030037;28;20018;-68
2022/01/29 06:22:56;;;;;;;81.50;42.10;;;8.10;92.50;;;;;;5011663;28;20033;-69
2022/01/29 06:25:22;;;;;;;74.97;40.97;;;8.10;92.50;;;;;;5012140;28;20053;-68
2022/01/29 06:27:48;;;;;;;78.80;39.78;;;8.20;92.50;;;;;;5029612;28;20033;-68
2022/01/29 06:30:15;;;;;;;64.43;37.80;;;8.20;92.50;;;;;;5029923;28;20029;-68
2022/01/29 06:32:41;;;;;;;60.22;36.20;;;8.20;92.50;;;;;;5006708;28;20148;-68
2022/01/29 06:35:07;;;;;;;68.68;36.72;;;8.20;92.50;;;;;;5029385;28;20052;-68
2022/01/29 06:37:33;;;;;;;59.92;33.22;;;8.20;92.50;;;;;;5028148;28;20038;-68
2022/01/29 06:39:59;;;;;;;63.55;36.15;;;8.20;92.40;;;;;;5029866;28;20036;-68
2022/01/29 06:42:25;;;;;;;57.95;34.95;;;8.20;92.50;;;;;;5010512;28;20474;-68
2022/01/29 06:44:51;;;;;;;63.85;37.15;;;8.20;92.50;;;;;;5011047;28;20021;-68
2022/01/29 06:47:17;;;;;;;72.10;39.00;;;8.20;92.50;;;;;;5012013;28;20496;-68
2022/01/29 06:49:42;;;;;;;58.22;34.97;;;8.30;92.60;;;;;;5028891;28;20033;-68
2022/01/29 06:52:08;;;;;;;58.83;34.90;;;8.30;92.50;;;;;;4995111;28;20111;-68
2022/01/29 06:54:34;;;;;;;57.85;34.13;;;8.30;92.50;;;;;;5011583;28;20042;-68
2022/01/29 06:56:59;;;;;;;56.15;33.15;;;8.30;92.50;;;;;;5029025;28;20026;-68
2022/01/29 06:59:25;;;;;;;57.92;33.88;;;8.30;92.50;;;;;;5010548;28;20030;-68
2022/01/29 07:01:51;;;;;;;53.05;33.38;;;8.30;92.50;;;;;;5013233;28;20018;-68
2022/01/29 07:04:17;;;;;;;53.55;31.95;;;8.30;92.50;;;;;;5011230;28;20030;-68
2022/01/29 07:06:42;;;;;;;50.90;32.85;;;8.40;92.50;;;;;;5028847;28;20036;-68
2022/01/29 07:09:08;;;;;;;51.45;31.45;;;8.40;92.50;;;;;;5020944;28;20405;-68
2022/01/29 07:11:34;;;;;;;53.00;31.73;;;8.40;92.50;;;;;;5024731;28;20030;-68
2022/01/29 07:14:02;;;;;;;52.83;31.50;;;8.40;92.50;;;;;;5029018;28;20041;-68
2022/01/29 07:16:29;;;;;;;45.97;28.60;;;8.40;92.50;;;;;;5029290;28;20018;-68
2022/01/29 07:18:55;;;;;;;44.80;29.58;;;8.50;92.50;;;;;;5010982;28;20033;-69
2022/01/29 07:21:21;;;;;;;53.78;31.95;;;8.40;92.50;;;;;;5029709;28;20587;-68
2022/01/29 07:23:46;;;;;;;45.65;28.33;;;8.50;92.50;;;;;;4993004;28;20558;-68
2022/01/29 07:26:12;;;;;;;50.95;30.52;;;8.50;92.50;;;;;;5025560;28;20038;-69
2022/01/29 07:28:39;;;;;;;48.78;30.38;;;8.50;92.60;;;;;;5028503;28;20045;-68
2022/01/29 07:31:05;;;;;;;42.53;28.35;;;8.50;92.60;;;;;;5027772;28;20033;-69
2022/01/29 07:33:30;;;;;;;44.67;29.15;;;8.50;92.60;;;;;;5028049;28;20046;-68
2022/01/29 07:35:57;;;;;;;42.42;27.92;;;8.50;92.70;;;;;;5011327;28;20091;-68
2022/01/29 07:38:22;;;;;;;43.70;28.35;;;8.50;92.70;;;;;;5031208;28;20026;-68
2022/01/29 07:40:48;;;;;;;39.95;26.30;;;8.50;92.70;;;;;;5032597;28;20040;-68
2022/01/29 07:43:14;;;;;;;32.42;24.42;;;8.60;92.70;;;;;;5031847;28;20025;-68
2022/01/29 07:45:39;;;;;;;51.72;28.42;;;8.60;92.70;;;;;;5032481;28;20040;-68
2022/01/29 07:48:05;;;;;;;37.22;25.98;;;8.60;92.80;;;;;;5014362;28;20033;-68
2022/01/29 07:50:31;;;;;;;39.15;24.85;;;8.60;92.80;;;;;;5032360;28;20037;-69
2022/01/29 07:52:59;;;;;;;32.78;23.48;;;8.60;92.70;;;;;;4997530;28;20032;-68
2022/01/29 07:55:31;;;;;;;35.80;23.48;;;8.60;92.80;;;;;;5032034;28;20359;-68
2022/01/29 07:57:58;;;;;;;37.08;23.77;;;8.60;92.80;;;;;;5032049;28;20380;-68
2022/01/29 08:00:24;;;;;;;33.03;22.33;;;8.60;92.80;;;;;;5032117;28;20079;-69
2022/01/29 08:02:50;;;;;;;33.53;22.08;;;8.70;92.80;;;;;;5031364;28;20029;-69
2022/01/29 08:05:16;;;;;;;31.38;21.55;;;8.70;92.90;;;;;;5032398;28;20408;-69
2022/01/29 08:07:42;;;;;;;29.45;20.67;;;8.70;92.90;;;;;;5014237;28;20099;-69
2022/01/29 08:10:08;;;;;;;30.55;19.88;;;8.70;92.90;;;;;;5032019;28;20038;-69
2022/01/29 08:12:34;;;;;;;32.28;20.05;;;8.70;92.90;;;;;;5031511;28;20519;-69
2022/01/29 08:15:00;;;;;;;25.63;19.65;;;8.80;92.90;;;;;;5031636;28;20064;-69
2022/01/29 08:17:26;;;;;;;25.30;18.55;;;8.80;92.90;;;;;;5031737;28;20072;-69
2022/01/29 08:19:52;;;;;;;30.15;18.23;;;8.80;92.90;;;;;;5031709;28;20037;-69
2022/01/29 08:22:17;;;;;;;40.60;20.20;;;8.80;92.90;;;;;;5031517;28;20485;-69
2022/01/29 08:24:43;;;;;;;33.80;20.60;;;8.80;92.90;;;;;;5031326;28;20045;-68
2022/01/29 08:27:09;;;;;;;23.52;17.70;;;8.90;92.90;;;;;;5031884;28;20358;-69
2022/01/29 08:29:35;;;;;;;24.55;17.63;;;8.90;92.90;;;;;;5025879;28;20040;-69
2022/01/29 08:32:01;;;;;;;25.55;17.40;;;8.90;92.90;;;;;;5031611;28;20022;-69
2022/01/29 08:34:27;;;;;;;33.72;19.05;;;8.90;92.90;;;;;;5013499;28;20425;-69
2022/01/29 08:36:53;;;;;;;26.73;19.98;;;8.90;92.90;;;;;;5031463;28;20022;-69
2022/01/29 08:39:19;;;;;;;28.63;18.80;;;9.00;92.90;;;;;;5031213;28;20021;-69
2022/01/29 08:41:46;;;;;;;30.80;18.83;;;9.00;92.90;;;;;;5013309;28;20456;-69
2022/01/29 08:44:11;;;;;;;34.05;20.70;;;9.00;92.90;;;;;;5031265;28;20030;-69
2022/01/29 08:46:37;;;;;;;30.67;19.60;;;9.00;92.90;;;;;;5013524;28;20032;-68
2022/01/29 08:49:03;;;;;;;28.48;18.42;;;9.00;92.90;;;;;;5029603;28;20392;-68
2022/01/29 08:51:29;;;;;;;30.23;18.73;;;9.00;93.20;;;;;;5030632;28;20045;-69
2022/01/29 08:53:54;;;;;;;24.88;18.95;;;9.00;92.90;;;;;;5031037;28;20017;-69
2022/01/29 08:56:20;;;;;;;24.52;18.40;;;9.10;92.90;;;;;;4994093;28;20033;-69
2022/01/29 08:58:46;;;;;;;23.27;17.45;;;9.10;92.90;;;;;;5028255;28;20021;-69
2022/01/29 09:01:12;;;;;;;22.83;17.08;;;9.10;92.90;;;;;;5013068;28;20029;-69
2022/01/29 09:03:38;;;;;;;23.80;17.52;;;9.10;92.90;;;;;;5030529;28;20105;-69
2022/01/29 09:06:04;;;;;;;23.55;17.23;;;9.10;92.90;;;;;;5031140;28;20451;-69
2022/01/29 09:08:30;;;;;;;24.55;17.63;;;9.10;92.90;;;;;;5030350;28;20504;-70
2022/01/29 09:10:57;;;;;;;25.05;17.75;;;9.10;92.90;;;;;;5031003;28;20025;-69
2022/01/29 09:13:27;;;;;;;20.10;16.20;;;9.10;92.90;;;;;;5030513;28;20117;-70
2022/01/29 09:15:54;;;;;;;27.88;18.33;;;9.10;92.90;;;;;;5012888;28;20101;-69
2022/01/29 09:18:19;;;;;;;23.88;18.48;;;9.10;93.00;;;;;;5030574;28;20099;-69
2022/01/29 09:20:45;;;;;;;22.80;16.70;;;9.20;93.00;;;;;;5030606;28;20030;-69
2022/01/29 09:23:11;;;;;;;22.00;16.50;;;9.20;93.00;;;;;;5029902;28;20054;-69
2022/01/29 09:25:38;;;;;;;23.92;17.13;;;9.20;93.00;;;;;;5030561;28;20056;-69
2022/01/29 09:28:05;;;;;;;25.98;17.17;;;9.20;93.10;;;;;;5030520;28;20061;-69
2022/01/29 09:30:32;;;;;;;19.58;16.45;;;9.20;93.10;;;;;;5030652;28;20449;-69
2022/01/29 09:32:57;;;;;;;32.88;18.33;;;9.20;93.00;;;;;;5035681;28;20468;-70
2022/01/29 09:35:23;;;;;;;23.50;17.20;;;9.30;93.00;;;;;;5030541;28;20079;-69
2022/01/29 09:37:49;;;;;;;23.52;16.60;;;9.30;93.00;;;;;;5030628;28;20032;-70
2022/01/29 09:40:16;;;;;;;23.65;15.73;;;9.30;93.00;;;;;;5030271;28;20434;-69
2022/01/29 09:42:45;;;;;;;21.70;14.52;;;9.30;93.00;;;;;;5010058;28;20063;-69
2022/01/29 09:45:15;;;;;;;23.50;15.48;;;9.40;93.20;;;;;;5020618;28;20787;-69
2022/01/29 09:47:45;;;;;;;20.17;14.43;;;9.40;92.90;;;;;;5029030;28;20480;-70
2022/01/29 09:50:13;;;;;;;23.67;15.30;;;9.40;92.90;;;;;;5010991;28;20036;-69
2022/01/29 09:52:39;;;;;;;18.13;13.38;;;9.40;92.80;;;;;;5011225;28;20096;-69
2022/01/29 09:55:06;;;;;;;17.92;13.60;;;9.40;92.80;;;;;;5029906;28;20025;-70
2022/01/29 09:57:32;;;;;;;20.60;13.85;;;9.40;92.70;;;;;;5029602;28;20634;-69
2022/01/29 09:59:58;;;;;;;18.52;13.18;;;9.50;92.70;;;;;;5029483;28;20082;-69
2022/01/29 10:02:24;;;;;;;17.90;12.82;;;9.50;92.70;;;;;;5021238;28;20431;-69
2022/01/29 10:04:55;;;;;;;15.82;12.30;;;9.50;92.60;;;;;;5011723;28;20261;-69
2022/01/29 10:07:26;;;;;;;19.48;11.73;;;9.50;92.60;;;;;;5029600;28;20037;-69
2022/01/29 10:09:53;;;;;;;19.98;11.82;;;9.50;92.60;;;;;;5011258;28;20484;-69
2022/01/29 10:12:30;;;;;;;17.45;11.68;;;9.60;92.50;;;;;;5028975;28;20465;-69
2022/01/29 10:14:57;;;;;;;15.25;10.32;;;9.60;92.50;;;;;;5029423;28;20044;-69
2022/01/29 10:17:46;;;;;;;14.90;9.98;;;9.60;92.50;;;;;;5028549;28;20032;-69
2022/01/29 10:20:12;;;;;;;16.05;9.68;;;9.60;92.40;;;;;;5013420;28;20488;-69
2022/01/29 10:22:39;;;;;;;13.43;8.27;;;9.60;92.30;;;;;;5028840;28;20032;-69
2022/01/29 10:25:16;;;;;;;12.20;8.15;;;9.70;92.30;;;;;;5029344;28;20112;-69
2022/01/29 10:28:06;;;;;;;11.20;8.23;;;9.70;92.30;;;;;;5028352;28;20037;-69
2022/01/29 10:30:34;;;;;;;13.45;8.38;;;9.70;92.20;;;;;;5015950;28;20025;-69
2022/01/29 10:33:19;;;;;;;16.38;8.35;;;9.70;92.10;;;;;;5028178;28;20041;-69
2022/01/29 10:35:50;;;;;;;11.05;7.05;;;9.70;92.00;;;;;;5010399;28;20037;-69
2022/01/29 10:38:21;;;;;;;8.73;6.38;;;9.80;91.90;;;;;;5029004;28;20417;-69
2022/01/29 10:41:11;;;;;;;10.38;6.80;;;9.80;91.90;;;;;;5010600;28;20018;-69
2022/01/29 10:44:08;;;;;;;9.38;6.60;;;9.80;91.80;;;;;;5022419;28;20473;-69
2022/01/29 10:46:34;;;;;;;9.63;5.28;;;9.80;91.70;;;;;;5023905;28;20122;-69
2022/01/29 10:49:01;;;;;;;11.30;5.22;;;9.80;91.70;;;;;;5028133;28;20068;-69
2022/01/29 10:51:27;;;;;;;10.10;5.38;;;9.90;91.90;;;;;;5027498;28;20432;-69
2022/01/29 10:53:53;;;;;;;6.80;4.82;;;9.90;91.60;;;;;;5011333;28;20024;-70
2022/01/29 10:56:20;;;;;;;10.77;5.07;;;9.90;91.80;;;;;;5029203;28;20025;-69
2022/01/29 10:58:50;;;;;;;7.93;5.40;;;10.00;91.40;;;;;;5011088;28;20080;-70
2022/01/29 11:01:21;;;;;;;9.82;5.10;;;10.00;91.30;;;;;;5028389;28;20104;-70
2022/01/29 11:03:47;;;;;;;10.25;4.93;;;10.00;91.20;;;;;;5027958;28;20032;-70
2022/01/29 11:06:16;;;;;;;9.70;5.28;;;10.00;91.10;;;;;;5028757;28;20097;-69
2022/01/29 11:08:43;;;;;;;9.77;5.20;;;10.00;91.10;;;;;;5011427;28;20121;-69
2022/01/29 11:11:10;;;;;;;12.80;4.85;;;10.10;91.00;;;;;;5010857;28;20025;-69
2022/01/29 11:13:37;;;;;;;8.10;4.25;;;10.10;90.90;;;;;;5031354;28;20392;-70
2022/01/29 11:16:03;;;;;;;8.70;4.38;;;10.10;90.90;;;;;;5032567;28;20025;-69
2022/01/29 11:18:34;;;;;;;10.45;4.50;;;10.10;90.90;;;;;;5032244;28;20030;-69
2022/01/29 11:21:01;;;;;;;6.88;4.25;;;10.20;90.80;;;;;;5009977;28;20038;-69
2022/01/29 11:23:30;;;;;;;6.78;4.10;;;10.20;90.70;;;;;;5042868;28;20056;-70
2022/01/29 11:25:57;;;;;;;9.13;4.45;;;10.20;90.70;;;;;;5020746;28;20063;-69
2022/01/29 11:28:26;;;;;;;10.00;5.00;;;10.20;90.50;;;;;;5031732;28;20536;-69
2022/01/29 11:31:11;;;;;;;10.20;4.03;;;10.20;90.40;;;;;;5032036;28;20520;-69
2022/01/29 11:33:58;;;;;;;9.07;4.00;;;10.20;90.30;;;;;;5044179;28;20411;-69
2022/01/29 11:36:49;;;;;;;7.53;3.40;;;10.30;90.30;;;;;;5025821;28;20033;-69
2022/01/29 11:39:29;;;;;;;7.43;3.50;;;10.30;90.10;;;;;;5011356;28;20037;-70
2022/01/29 11:42:13;;;;;;;6.13;3.33;;;10.30;90.10;;;;;;5031452;28;20022;-70
2022/01/29 11:44:40;;;;;;;7.63;3.30;;;10.30;90.10;;;;;;5031584;28;20010;-70
2022/01/29 11:47:25;;;;;;;8.30;2.80;;;10.30;90.00;;;;;;5032149;28;20103;-69
2022/01/29 11:49:53;;;;;;;6.78;3.20;;;10.40;90.10;;;;;;5031100;28;20112;-70
2022/01/29 11:52:23;;;;;;;8.63;3.10;;;10.40;90.00;;;;;;5031008;28;20021;-69
2022/01/29 11:55:04;;;;;;;8.85;3.00;;;10.40;89.90;;;;;;5013770;28;20037;-69
2022/01/29 11:57:30;;;;;;;5.88;2.35;;;10.40;89.80;;;;;;5012815;28;20113;-69
2022/01/29 11:59:55;;;;;;;9.00;2.85;;;10.50;89.60;;;;;;5031548;28;20163;-70
2022/01/29 12:02:21;;;;;;;5.97;2.42;;;10.50;89.50;;;;;;5031043;28;20029;-70
2022/01/29 12:04:51;;;;;;;7.97;2.47;;;10.50;89.50;;;;;;5030930;28;20036;-69
2022/01/29 12:07:27;;;;;;;8.63;2.70;;;10.50;89.10;;;;;;5031461;28;20040;-69
2022/01/29 12:10:11;;;;;;;6.18;2.70;;;10.50;89.10;;;;;;5013273;28;20037;-69
2022/01/29 12:12:39;;;;;;;12.48;3.28;;;10.50;89.20;;;;;;5030864;28;20029;-69
2022/01/29 12:15:11;;;;;;;8.65;2.65;;;10.60;89.00;;;;;;4997490;28;20388;-68
2022/01/29 12:17:45;;;;;;;7.28;2.65;;;10.60;88.90;;;;;;5012921;28;20034;-70
2022/01/29 12:20:22;;;;;;;7.75;2.03;;;10.70;88.70;;;;;;5015287;28;20396;-69
2022/01/29 12:22:50;;;;;;;8.68;2.75;;;10.70;88.60;;;;;;5012796;28;20021;-69
2022/01/29 12:25:28;;;;;;;5.70;2.22;;;10.70;88.20;;;;;;5031409;28;20427;-69
2022/01/29 12:27:57;;;;;;;8.65;2.85;;;10.70;87.90;;;;;;5009218;28;20032;-69
2022/01/29 12:30:35;;;;;;;6.20;2.28;;;10.80;88.30;;;;;;5013427;28;20059;-69
2022/01/29 12:33:13;;;;;;;8.18;2.58;;;10.80;87.80;;;;;;5011790;28;20021;-69
2022/01/29 12:35:58;;;;;;;7.20;2.50;;;10.80;87.90;;;;;;5013334;28;20065;-70
2022/01/29 12:38:35;;;;;;;3.70;2.15;;;10.80;87.70;;;;;;5016933;28;20017;-70
2022/01/29 12:41:04;;;;;;;8.85;2.30;;;10.80;87.40;;;;;;5030783;28;20113;-70
2022/01/29 12:43:51;;;;;;;6.32;2.17;;;10.80;87.20;;;;;;5031165;28;20061;-69
2022/01/29 12:46:19;;;;;;;9.68;2.70;;;10.90;87.30;;;;;;5016021;28;20028;-69
2022/01/29 12:49:07;;;;;;;7.35;2.47;;;10.90;87.20;;;;;;5030734;28;20017;-70
2022/01/29 12:51:48;;;;;;;5.43;2.22;;;10.90;87.30;;;;;;5030999;28;20040;-69
2022/01/29 12:54:13;;;;;;;6.35;2.50;;;10.90;86.90;;;;;;5031381;28;20033;-69